Cave City, Kentucky
Current Conditions -  °F | °C
As of 1:35 PM on Thursday 18 Dec 2014 (Local Time) from KGLW Reporting Station
Overcast Overcast  
Wind Chill: 34°   Ceiling: 4200
Heat Index: 34°   Visibility: 7mi
Dew Point: 27°   Wind: 0mph
Humidity: 75%   Direction: NA
Pressure: 30.21"   Gusts: NA
Location:  37.14°N, 85.96°W
Report Text: KGLW 181935Z AUTO 00000KT 7SM OVC042 01/M03 A3021 RMK AO2 T00091030
Loading
Personal Weather Stations






























Interactive Weather Map New forecast layout! Learn more

10-Day Weather Forecast

Advertisements
Track Severe Weather on mobile